Terminal Aerodrome Forecast
Issued by NWS

Home | Current Version | Previous Version | Text Only | Print | Product List | Glossary On
Versions: 1 2 3 4 5 6 7 8 9 10 11 12 13 14 15 16 17 18
000
FTUS42 KMHX 021725
TAFPGV
TAF
KPGV 021725Z 0218/0318 36010KT P6SM SCT250
     FM030000 04005KT P6SM SCT250
     FM030900 04005KT P6SM BKN250
     FM031100 04005KT P6SM BKN100
     FM031300 04005KT P6SM OVC050
      AMD LTD TO CLD VIS AND WIND=

USA.gov is the U.S. government's official web portal to all federal, state and local government web resources and services.